Pagrindinis puslapis
METAR-TAF:

METAR-TAF

Oro uostai :

Mačala, Ekvadoras

platuma: 03-26-07S, ilguma: 079-58-40W, Aukštis: 52 m

Dabartinis oras

Ataskaita buvo paskelbta 12 minutes, ne 16:00 UTC
Ramus vėjas
Temperatūra 23°C
Drėgmė 89%
Slėgis 1015 hPa
Matomumas 10 km arba daugiau
Išsisklaidę debesys ne aukštis 1300 ft
Apsiniaukę ne aukštis 1600 ft
Liūtis kaimynystėje

METAR: SERO 221600Z 00000KT 9999 VCSH SCT013 OVC016 23/21 Q1015

Laikas: 11:12 (16:12 UTC)


TAF: trūkstamas

Orai ataskaitas ir orų prognozės (METAR, TAF).

turimą stotys yra geltonos ir raudonos taškus žemėlapyje.

Perkelti pele per norėdami pamatyti stoties vardą.

Tada spustelėkite, norėdami matyti oro stebėjimo ir prognozės.

Norėdami pakeisti žemėlapį: spustelėkite ant žalios mygtukų su juodo kryžiaus žemyn,; žalią mygtuką su brūkšneliu, jei norite nutolinti; arba žalių rodyklių gretimoms žemėlapius.


METAR-TAF: